sensor_id;sensor_type;location;lat;lon;timestamp;P1;durP1;ratioP1;P2;durP2;ratioP2
11121;SDS011;5615;49.304;10.576;2024-03-02T00:01:14;41.93;;;26.23;;
11121;SDS011;5615;49.304;10.576;2024-03-02T00:03:43;47.07;;;28.37;;
11121;SDS011;5615;49.304;10.576;2024-03-02T00:06:09;43.70;;;26.30;;
11121;SDS011;5615;49.304;10.576;2024-03-02T00:08:37;40.63;;;25.23;;
11121;SDS011;5615;49.304;10.576;2024-03-02T00:11:03;42.77;;;26.47;;
11121;SDS011;5615;49.304;10.576;2024-03-02T00:13:30;43.90;;;27.20;;
11121;SDS011;5615;49.304;10.576;2024-03-02T00:15:57;43.60;;;26.90;;
11121;SDS011;5615;49.304;10.576;2024-03-02T00:18:25;44.63;;;27.53;;
11121;SDS011;5615;49.304;10.576;2024-03-02T00:20:54;44.07;;;27.27;;
11121;SDS011;5615;49.304;10.576;2024-03-02T00:23:21;44.43;;;27.07;;
11121;SDS011;5615;49.304;10.576;2024-03-02T00:25:50;44.67;;;26.13;;
11121;SDS011;5615;49.304;10.576;2024-03-02T00:28:19;43.47;;;26.97;;
11121;SDS011;5615;49.304;10.576;2024-03-02T00:30:52;44.13;;;25.70;;
11121;SDS011;5615;49.304;10.576;2024-03-02T00:33:22;45.17;;;26.23;;
11121;SDS011;5615;49.304;10.576;2024-03-02T00:35:50;45.60;;;27.83;;
11121;SDS011;5615;49.304;10.576;2024-03-02T00:38:18;46.50;;;27.77;;
11121;SDS011;5615;49.304;10.576;2024-03-02T00:40:45;49.33;;;27.77;;
11121;SDS011;5615;49.304;10.576;2024-03-02T00:43:18;45.57;;;28.07;;
11121;SDS011;5615;49.304;10.576;2024-03-02T00:46:12;47.47;;;28.23;;
11121;SDS011;5615;49.304;10.576;2024-03-02T00:48:39;49.03;;;27.93;;
11121;SDS011;5615;49.304;10.576;2024-03-02T00:51:13;48.60;;;29.13;;
11121;SDS011;5615;49.304;10.576;2024-03-02T00:53:41;52.70;;;28.93;;
11121;SDS011;5615;49.304;10.576;2024-03-02T00:56:08;48.30;;;28.93;;
11121;SDS011;5615;49.304;10.576;2024-03-02T00:58:36;51.13;;;30.37;;
11121;SDS011;5615;49.304;10.576;2024-03-02T01:01:03;49.17;;;29.10;;
11121;SDS011;5615;49.304;10.576;2024-03-02T01:03:30;48.60;;;28.90;;
11121;SDS011;5615;49.304;10.576;2024-03-02T01:05:57;54.40;;;30.20;;
11121;SDS011;5615;49.304;10.576;2024-03-02T01:08:24;45.87;;;27.27;;
11121;SDS011;5615;49.304;10.576;2024-03-02T01:10:52;49.00;;;28.97;;
11121;SDS011;5615;49.304;10.576;2024-03-02T01:13:20;51.97;;;29.23;;
11121;SDS011;5615;49.304;10.576;2024-03-02T01:15:47;50.67;;;28.47;;
11121;SDS011;5615;49.304;10.576;2024-03-02T01:18:14;51.90;;;28.70;;
11121;SDS011;5615;49.304;10.576;2024-03-02T01:20:41;54.43;;;29.67;;
11121;SDS011;5615;49.304;10.576;2024-03-02T01:23:07;51.97;;;29.07;;
11121;SDS011;5615;49.304;10.576;2024-03-02T01:25:34;53.57;;;30.53;;
11121;SDS011;5615;49.304;10.576;2024-03-02T01:28:03;50.80;;;28.03;;
11121;SDS011;5615;49.304;10.576;2024-03-02T01:30:30;57.17;;;29.63;;
11121;SDS011;5615;49.304;10.576;2024-03-02T01:32:56;53.97;;;29.23;;
11121;SDS011;5615;49.304;10.576;2024-03-02T01:35:24;48.63;;;28.27;;
11121;SDS011;5615;49.304;10.576;2024-03-02T01:37:51;48.60;;;27.53;;
11121;SDS011;5615;49.304;10.576;2024-03-02T01:40:19;50.03;;;26.63;;
11121;SDS011;5615;49.304;10.576;2024-03-02T01:42:46;51.63;;;28.23;;
11121;SDS011;5615;49.304;10.576;2024-03-02T01:45:14;52.40;;;29.67;;
11121;SDS011;5615;49.304;10.576;2024-03-02T01:47:40;54.43;;;29.57;;
11121;SDS011;5615;49.304;10.576;2024-03-02T01:50:07;52.43;;;29.30;;
11121;SDS011;5615;49.304;10.576;2024-03-02T01:52:36;52.90;;;28.27;;
11121;SDS011;5615;49.304;10.576;2024-03-02T01:55:03;52.23;;;29.40;;
11121;SDS011;5615;49.304;10.576;2024-03-02T01:57:31;52.27;;;27.97;;
11121;SDS011;5615;49.304;10.576;2024-03-02T01:59:57;53.20;;;28.93;;
11121;SDS011;5615;49.304;10.576;2024-03-02T02:02:26;49.43;;;27.97;;
11121;SDS011;5615;49.304;10.576;2024-03-02T02:04:52;51.00;;;27.83;;
11121;SDS011;5615;49.304;10.576;2024-03-02T02:07:19;53.07;;;29.07;;
11121;SDS011;5615;49.304;10.576;2024-03-02T02:09:46;53.53;;;28.13;;
11121;SDS011;5615;49.304;10.576;2024-03-02T02:12:12;51.30;;;28.80;;
11121;SDS011;5615;49.304;10.576;2024-03-02T02:14:40;56.80;;;28.57;;
11121;SDS011;5615;49.304;10.576;2024-03-02T02:17:13;49.43;;;28.03;;
11121;SDS011;5615;49.304;10.576;2024-03-02T02:19:41;53.63;;;27.80;;
11121;SDS011;5615;49.304;10.576;2024-03-02T02:22:09;53.80;;;29.27;;
11121;SDS011;5615;49.304;10.576;2024-03-02T02:24:36;50.23;;;28.90;;
11121;SDS011;5615;49.304;10.576;2024-03-02T02:27:05;50.53;;;28.20;;
11121;SDS011;5615;49.304;10.576;2024-03-02T02:29:32;48.33;;;27.57;;
11121;SDS011;5615;49.304;10.576;2024-03-02T02:31:58;45.53;;;26.03;;
11121;SDS011;5615;49.304;10.576;2024-03-02T02:34:25;50.33;;;28.80;;
11121;SDS011;5615;49.304;10.576;2024-03-02T02:36:52;52.33;;;29.20;;
11121;SDS011;5615;49.304;10.576;2024-03-02T02:39:21;46.67;;;26.43;;
11121;SDS011;5615;49.304;10.576;2024-03-02T02:41:48;51.07;;;29.00;;
11121;SDS011;5615;49.304;10.576;2024-03-02T02:44:15;46.57;;;26.73;;
11121;SDS011;5615;49.304;10.576;2024-03-02T02:46:41;46.13;;;26.10;;
11121;SDS011;5615;49.304;10.576;2024-03-02T02:49:08;43.80;;;25.63;;
11121;SDS011;5615;49.304;10.576;2024-03-02T02:51:35;48.87;;;27.20;;
11121;SDS011;5615;49.304;10.576;2024-03-02T02:54:02;48.73;;;26.90;;
11121;SDS011;5615;49.304;10.576;2024-03-02T02:56:30;49.80;;;28.10;;
11121;SDS011;5615;49.304;10.576;2024-03-02T02:58:56;40.93;;;24.13;;
11121;SDS011;5615;49.304;10.576;2024-03-02T03:01:23;47.33;;;27.30;;
11121;SDS011;5615;49.304;10.576;2024-03-02T03:03:50;42.33;;;25.13;;
11121;SDS011;5615;49.304;10.576;2024-03-02T03:06:17;44.00;;;24.93;;
11121;SDS011;5615;49.304;10.576;2024-03-02T03:08:43;46.20;;;25.23;;
11121;SDS011;5615;49.304;10.576;2024-03-02T03:11:10;49.83;;;25.87;;
11121;SDS011;5615;49.304;10.576;2024-03-02T03:13:38;42.80;;;25.90;;
11121;SDS011;5615;49.304;10.576;2024-03-02T03:16:05;47.43;;;26.07;;
11121;SDS011;5615;49.304;10.576;2024-03-02T03:18:32;42.93;;;24.43;;
11121;SDS011;5615;49.304;10.576;2024-03-02T03:20:58;42.93;;;24.93;;
11121;SDS011;5615;49.304;10.576;2024-03-02T03:23:25;45.60;;;24.97;;
11121;SDS011;5615;49.304;10.576;2024-03-02T03:25:51;43.77;;;24.83;;
11121;SDS011;5615;49.304;10.576;2024-03-02T03:28:18;48.17;;;27.20;;
11121;SDS011;5615;49.304;10.576;2024-03-02T03:30:46;45.00;;;26.70;;
11121;SDS011;5615;49.304;10.576;2024-03-02T03:33:13;41.50;;;24.70;;
11121;SDS011;5615;49.304;10.576;2024-03-02T03:35:40;45.43;;;25.33;;
11121;SDS011;5615;49.304;10.576;2024-03-02T03:38:06;45.83;;;26.23;;
11121;SDS011;5615;49.304;10.576;2024-03-02T03:40:33;44.20;;;25.43;;
11121;SDS011;5615;49.304;10.576;2024-03-02T03:43:00;46.93;;;25.97;;
11121;SDS011;5615;49.304;10.576;2024-03-02T03:45:27;45.77;;;26.00;;
11121;SDS011;5615;49.304;10.576;2024-03-02T03:47:56;47.17;;;26.13;;
11121;SDS011;5615;49.304;10.576;2024-03-02T03:50:23;46.43;;;24.60;;
11121;SDS011;5615;49.304;10.576;2024-03-02T03:52:50;46.47;;;26.70;;
11121;SDS011;5615;49.304;10.576;2024-03-02T03:55:16;45.67;;;24.43;;
11121;SDS011;5615;49.304;10.576;2024-03-02T03:57:43;43.60;;;24.23;;
11121;SDS011;5615;49.304;10.576;2024-03-02T04:00:10;49.50;;;25.30;;
11121;SDS011;5615;49.304;10.576;2024-03-02T04:02:37;43.00;;;24.67;;
11121;SDS011;5615;49.304;10.576;2024-03-02T04:05:06;48.00;;;25.97;;
11121;SDS011;5615;49.304;10.576;2024-03-02T04:07:35;46.83;;;25.73;;
11121;SDS011;5615;49.304;10.576;2024-03-02T04:10:06;49.57;;;25.87;;
11121;SDS011;5615;49.304;10.576;2024-03-02T04:12:34;48.10;;;25.73;;
11121;SDS011;5615;49.304;10.576;2024-03-02T04:15:01;42.43;;;24.70;;
11121;SDS011;5615;49.304;10.576;2024-03-02T04:17:28;48.53;;;25.70;;
11121;SDS011;5615;49.304;10.576;2024-03-02T04:19:57;42.93;;;24.47;;
11121;SDS011;5615;49.304;10.576;2024-03-02T04:22:25;45.00;;;24.77;;
11121;SDS011;5615;49.304;10.576;2024-03-02T04:24:51;43.27;;;24.83;;
11121;SDS011;5615;49.304;10.576;2024-03-02T04:27:18;46.03;;;24.67;;
11121;SDS011;5615;49.304;10.576;2024-03-02T04:29:45;48.47;;;25.97;;
11121;SDS011;5615;49.304;10.576;2024-03-02T04:32:11;47.50;;;26.47;;
11121;SDS011;5615;49.304;10.576;2024-03-02T04:34:38;47.97;;;24.47;;
11121;SDS011;5615;49.304;10.576;2024-03-02T04:37:05;47.90;;;25.17;;
11121;SDS011;5615;49.304;10.576;2024-03-02T04:39:33;49.10;;;25.47;;
11121;SDS011;5615;49.304;10.576;2024-03-02T04:42:00;49.17;;;25.30;;
11121;SDS011;5615;49.304;10.576;2024-03-02T04:44:27;47.97;;;25.70;;
11121;SDS011;5615;49.304;10.576;2024-03-02T04:46:54;50.67;;;27.00;;
11121;SDS011;5615;49.304;10.576;2024-03-02T04:49:21;49.10;;;25.63;;
11121;SDS011;5615;49.304;10.576;2024-03-02T04:51:47;49.40;;;26.53;;
11121;SDS011;5615;49.304;10.576;2024-03-02T04:54:14;51.97;;;26.53;;
11121;SDS011;5615;49.304;10.576;2024-03-02T04:56:42;50.30;;;28.47;;
11121;SDS011;5615;49.304;10.576;2024-03-02T04:59:14;48.83;;;25.80;;
11121;SDS011;5615;49.304;10.576;2024-03-02T05:01:41;49.80;;;27.07;;
11121;SDS011;5615;49.304;10.576;2024-03-02T05:04:08;62.07;;;30.60;;
11121;SDS011;5615;49.304;10.576;2024-03-02T05:06:36;52.37;;;26.80;;
11121;SDS011;5615;49.304;10.576;2024-03-02T05:09:04;51.50;;;27.63;;
11121;SDS011;5615;49.304;10.576;2024-03-02T05:11:30;52.97;;;26.70;;
11121;SDS011;5615;49.304;10.576;2024-03-02T05:14:19;57.87;;;27.57;;
11121;SDS011;5615;49.304;10.576;2024-03-02T05:16:45;52.83;;;27.77;;
11121;SDS011;5615;49.304;10.576;2024-03-02T05:19:11;52.97;;;27.73;;
11121;SDS011;5615;49.304;10.576;2024-03-02T05:21:38;50.80;;;28.13;;
11121;SDS011;5615;49.304;10.576;2024-03-02T05:24:05;53.10;;;27.67;;
11121;SDS011;5615;49.304;10.576;2024-03-02T05:26:32;52.87;;;27.43;;
11121;SDS011;5615;49.304;10.576;2024-03-02T05:28:58;53.93;;;27.47;;
11121;SDS011;5615;49.304;10.576;2024-03-02T05:31:25;53.40;;;27.47;;
11121;SDS011;5615;49.304;10.576;2024-03-02T05:33:52;56.67;;;28.03;;
11121;SDS011;5615;49.304;10.576;2024-03-02T05:36:18;52.47;;;27.27;;
11121;SDS011;5615;49.304;10.576;2024-03-02T05:38:46;54.10;;;26.60;;
11121;SDS011;5615;49.304;10.576;2024-03-02T05:41:12;61.97;;;29.80;;
11121;SDS011;5615;49.304;10.576;2024-03-02T05:43:39;55.40;;;28.07;;
11121;SDS011;5615;49.304;10.576;2024-03-02T05:46:06;52.60;;;28.20;;
11121;SDS011;5615;49.304;10.576;2024-03-02T05:48:34;60.10;;;28.83;;
11121;SDS011;5615;49.304;10.576;2024-03-02T05:51:00;55.07;;;27.70;;
11121;SDS011;5615;49.304;10.576;2024-03-02T05:53:27;57.97;;;28.77;;
11121;SDS011;5615;49.304;10.576;2024-03-02T05:55:54;57.40;;;29.63;;
11121;SDS011;5615;49.304;10.576;2024-03-02T05:58:21;58.87;;;28.57;;
11121;SDS011;5615;49.304;10.576;2024-03-02T06:00:58;57.10;;;29.87;;
11121;SDS011;5615;49.304;10.576;2024-03-02T06:03:25;54.53;;;29.20;;
11121;SDS011;5615;49.304;10.576;2024-03-02T06:05:54;59.63;;;31.33;;
11121;SDS011;5615;49.304;10.576;2024-03-02T06:08:21;62.63;;;33.70;;
11121;SDS011;5615;49.304;10.576;2024-03-02T06:10:48;59.50;;;33.33;;
11121;SDS011;5615;49.304;10.576;2024-03-02T06:13:14;58.87;;;29.87;;
11121;SDS011;5615;49.304;10.576;2024-03-02T06:15:41;56.37;;;30.07;;
11121;SDS011;5615;49.304;10.576;2024-03-02T06:18:08;55.90;;;30.40;;
11121;SDS011;5615;49.304;10.576;2024-03-02T06:20:35;63.50;;;34.70;;
11121;SDS011;5615;49.304;10.576;2024-03-02T06:23:03;56.67;;;30.77;;
11121;SDS011;5615;49.304;10.576;2024-03-02T06:25:30;51.50;;;29.03;;
11121;SDS011;5615;49.304;10.576;2024-03-02T06:27:57;53.23;;;28.83;;
11121;SDS011;5615;49.304;10.576;2024-03-02T06:30:23;53.77;;;28.77;;
11121;SDS011;5615;49.304;10.576;2024-03-02T06:32:50;56.77;;;29.07;;
11121;SDS011;5615;49.304;10.576;2024-03-02T06:35:17;56.10;;;28.70;;
11121;SDS011;5615;49.304;10.576;2024-03-02T06:37:43;53.73;;;28.97;;
11121;SDS011;5615;49.304;10.576;2024-03-02T06:40:11;45.77;;;27.70;;
11121;SDS011;5615;49.304;10.576;2024-03-02T06:42:38;49.57;;;27.50;;
11121;SDS011;5615;49.304;10.576;2024-03-02T06:45:05;50.80;;;28.00;;
11121;SDS011;5615;49.304;10.576;2024-03-02T06:47:32;47.77;;;26.77;;
11121;SDS011;5615;49.304;10.576;2024-03-02T06:49:59;46.90;;;27.10;;
11121;SDS011;5615;49.304;10.576;2024-03-02T06:52:25;48.27;;;26.93;;
11121;SDS011;5615;49.304;10.576;2024-03-02T06:54:52;47.27;;;27.07;;
11121;SDS011;5615;49.304;10.576;2024-03-02T06:57:20;44.10;;;25.80;;
11121;SDS011;5615;49.304;10.576;2024-03-02T06:59:47;43.07;;;24.80;;
11121;SDS011;5615;49.304;10.576;2024-03-02T07:02:15;48.80;;;26.80;;
11121;SDS011;5615;49.304;10.576;2024-03-02T07:04:41;45.83;;;25.67;;
11121;SDS011;5615;49.304;10.576;2024-03-02T07:07:09;43.50;;;24.13;;
11121;SDS011;5615;49.304;10.576;2024-03-02T07:09:36;39.80;;;24.30;;
11121;SDS011;5615;49.304;10.576;2024-03-02T07:12:03;39.67;;;24.10;;
11121;SDS011;5615;49.304;10.576;2024-03-02T07:14:31;38.03;;;23.27;;
11121;SDS011;5615;49.304;10.576;2024-03-02T07:17:12;40.03;;;23.77;;
11121;SDS011;5615;49.304;10.576;2024-03-02T07:19:38;41.53;;;23.70;;
11121;SDS011;5615;49.304;10.576;2024-03-02T07:22:05;36.30;;;22.63;;
11121;SDS011;5615;49.304;10.576;2024-03-02T07:24:38;34.20;;;22.43;;
11121;SDS011;5615;49.304;10.576;2024-03-02T07:27:06;34.93;;;21.90;;
11121;SDS011;5615;49.304;10.576;2024-03-02T07:29:34;31.73;;;20.70;;
11121;SDS011;5615;49.304;10.576;2024-03-02T07:32:01;31.80;;;22.53;;
11121;SDS011;5615;49.304;10.576;2024-03-02T07:34:28;29.23;;;20.73;;
11121;SDS011;5615;49.304;10.576;2024-03-02T07:36:55;28.00;;;20.10;;
11121;SDS011;5615;49.304;10.576;2024-03-02T07:39:22;27.27;;;19.70;;
11121;SDS011;5615;49.304;10.576;2024-03-02T07:41:48;26.97;;;18.90;;
11121;SDS011;5615;49.304;10.576;2024-03-02T07:44:15;23.70;;;18.13;;
11121;SDS011;5615;49.304;10.576;2024-03-02T07:46:45;25.20;;;17.80;;
11121;SDS011;5615;49.304;10.576;2024-03-02T07:49:14;24.23;;;17.73;;
11121;SDS011;5615;49.304;10.576;2024-03-02T07:51:41;22.27;;;17.83;;
11121;SDS011;5615;49.304;10.576;2024-03-02T07:54:08;22.23;;;17.03;;
11121;SDS011;5615;49.304;10.576;2024-03-02T07:56:35;21.57;;;17.30;;
11121;SDS011;5615;49.304;10.576;2024-03-02T07:59:02;22.47;;;17.23;;
11121;SDS011;5615;49.304;10.576;2024-03-02T08:01:29;22.77;;;17.27;;
11121;SDS011;5615;49.304;10.576;2024-03-02T08:03:57;19.57;;;15.87;;
11121;SDS011;5615;49.304;10.576;2024-03-02T08:06:24;18.90;;;16.23;;
11121;SDS011;5615;49.304;10.576;2024-03-02T08:08:52;19.53;;;15.97;;
11121;SDS011;5615;49.304;10.576;2024-03-02T08:11:19;21.27;;;16.60;;
11121;SDS011;5615;49.304;10.576;2024-03-02T08:13:46;18.50;;;15.80;;
11121;SDS011;5615;49.304;10.576;2024-03-02T08:16:13;20.20;;;15.90;;
11121;SDS011;5615;49.304;10.576;2024-03-02T08:18:40;17.87;;;15.60;;
11121;SDS011;5615;49.304;10.576;2024-03-02T08:21:08;17.87;;;15.43;;
11121;SDS011;5615;49.304;10.576;2024-03-02T08:23:34;16.97;;;14.37;;
11121;SDS011;5615;49.304;10.576;2024-03-02T08:26:01;15.47;;;13.40;;
11121;SDS011;5615;49.304;10.576;2024-03-02T08:28:29;16.40;;;13.87;;
11121;SDS011;5615;49.304;10.576;2024-03-02T08:30:56;16.90;;;13.60;;
11121;SDS011;5615;49.304;10.576;2024-03-02T08:33:22;15.77;;;12.97;;
11121;SDS011;5615;49.304;10.576;2024-03-02T08:35:49;14.30;;;12.37;;
11121;SDS011;5615;49.304;10.576;2024-03-02T08:38:17;14.80;;;13.30;;
11121;SDS011;5615;49.304;10.576;2024-03-02T08:40:44;16.43;;;13.47;;
11121;SDS011;5615;49.304;10.576;2024-03-02T08:43:11;15.57;;;13.10;;
11121;SDS011;5615;49.304;10.576;2024-03-02T08:45:38;15.20;;;12.53;;
11121;SDS011;5615;49.304;10.576;2024-03-02T08:48:05;14.70;;;12.80;;
11121;SDS011;5615;49.304;10.576;2024-03-02T08:50:33;16.13;;;13.27;;
11121;SDS011;5615;49.304;10.576;2024-03-02T08:53:00;14.63;;;12.30;;
11121;SDS011;5615;49.304;10.576;2024-03-02T08:55:28;16.07;;;13.27;;
11121;SDS011;5615;49.304;10.576;2024-03-02T08:57:55;16.17;;;13.33;;
11121;SDS011;5615;49.304;10.576;2024-03-02T09:00:22;14.83;;;13.23;;
11121;SDS011;5615;49.304;10.576;2024-03-02T09:02:49;13.53;;;12.13;;
11121;SDS011;5615;49.304;10.576;2024-03-02T09:05:16;14.17;;;12.67;;
11121;SDS011;5615;49.304;10.576;2024-03-02T09:07:42;15.63;;;12.27;;
11121;SDS011;5615;49.304;10.576;2024-03-02T09:10:09;13.63;;;12.20;;
11121;SDS011;5615;49.304;10.576;2024-03-02T09:12:37;13.63;;;11.70;;
11121;SDS011;5615;49.304;10.576;2024-03-02T09:15:04;15.03;;;12.13;;
11121;SDS011;5615;49.304;10.576;2024-03-02T09:17:32;15.00;;;12.23;;
11121;SDS011;5615;49.304;10.576;2024-03-02T09:19:58;13.20;;;10.63;;
11121;SDS011;5615;49.304;10.576;2024-03-02T09:22:25;12.07;;;10.27;;
11121;SDS011;5615;49.304;10.576;2024-03-02T09:24:52;12.83;;;10.90;;
11121;SDS011;5615;49.304;10.576;2024-03-02T09:27:18;11.40;;;10.20;;
11121;SDS011;5615;49.304;10.576;2024-03-02T09:29:46;11.93;;;10.53;;
11121;SDS011;5615;49.304;10.576;2024-03-02T09:32:13;11.63;;;10.00;;
11121;SDS011;5615;49.304;10.576;2024-03-02T09:34:40;11.20;;;10.00;;
11121;SDS011;5615;49.304;10.576;2024-03-02T09:37:08;10.67;;;9.57;;
11121;SDS011;5615;49.304;10.576;2024-03-02T09:39:35;11.10;;;9.90;;
11121;SDS011;5615;49.304;10.576;2024-03-02T09:42:01;11.13;;;9.93;;
11121;SDS011;5615;49.304;10.576;2024-03-02T09:44:30;10.60;;;9.60;;
11121;SDS011;5615;49.304;10.576;2024-03-02T09:46:58;11.53;;;10.30;;
11121;SDS011;5615;49.304;10.576;2024-03-02T09:49:25;9.77;;;8.77;;
11121;SDS011;5615;49.304;10.576;2024-03-02T09:51:51;9.97;;;8.97;;
11121;SDS011;5615;49.304;10.576;2024-03-02T09:54:18;9.03;;;8.13;;
11121;SDS011;5615;49.304;10.576;2024-03-02T09:56:46;9.47;;;8.17;;
11121;SDS011;5615;49.304;10.576;2024-03-02T09:59:12;10.17;;;8.07;;
11121;SDS011;5615;49.304;10.576;2024-03-02T10:01:54;8.70;;;7.80;;
11121;SDS011;5615;49.304;10.576;2024-03-02T10:04:23;8.47;;;7.67;;
11121;SDS011;5615;49.304;10.576;2024-03-02T10:06:51;10.17;;;7.03;;
11121;SDS011;5615;49.304;10.576;2024-03-02T10:09:26;7.83;;;6.87;;
11121;SDS011;5615;49.304;10.576;2024-03-02T10:11:53;7.83;;;7.03;;
11121;SDS011;5615;49.304;10.576;2024-03-02T10:14:30;7.97;;;7.17;;
11121;SDS011;5615;49.304;10.576;2024-03-02T10:17:01;7.60;;;6.90;;
11121;SDS011;5615;49.304;10.576;2024-03-02T10:19:30;7.53;;;6.73;;
11121;SDS011;5615;49.304;10.576;2024-03-02T10:21:58;7.40;;;6.70;;
11121;SDS011;5615;49.304;10.576;2024-03-02T10:24:25;8.13;;;6.55;;
11121;SDS011;5615;49.304;10.576;2024-03-02T10:26:52;7.95;;;6.65;;
11121;SDS011;5615;49.304;10.576;2024-03-02T10:29:19;7.53;;;6.63;;
11121;SDS011;5615;49.304;10.576;2024-03-02T10:31:46;8.20;;;6.47;;
11121;SDS011;5615;49.304;10.576;2024-03-02T10:34:13;7.55;;;6.45;;
11121;SDS011;5615;49.304;10.576;2024-03-02T10:36:42;6.78;;;6.07;;
11121;SDS011;5615;49.304;10.576;2024-03-02T10:39:11;6.90;;;6.20;;
11121;SDS011;5615;49.304;10.576;2024-03-02T10:41:40;7.25;;;6.57;;
11121;SDS011;5615;49.304;10.576;2024-03-02T10:44:07;6.30;;;5.70;;
11121;SDS011;5615;49.304;10.576;2024-03-02T10:46:36;7.10;;;6.40;;
11121;SDS011;5615;49.304;10.576;2024-03-02T10:49:04;6.72;;;6.03;;
11121;SDS011;5615;49.304;10.576;2024-03-02T10:51:32;6.25;;;5.63;;
11121;SDS011;5615;49.304;10.576;2024-03-02T10:54:02;7.18;;;5.75;;
11121;SDS011;5615;49.304;10.576;2024-03-02T10:56:31;7.68;;;5.43;;
11121;SDS011;5615;49.304;10.576;2024-03-02T10:59:01;5.35;;;4.82;;
11121;SDS011;5615;49.304;10.576;2024-03-02T11:01:29;5.50;;;4.90;;
11121;SDS011;5615;49.304;10.576;2024-03-02T11:03:58;6.75;;;5.00;;
11121;SDS011;5615;49.304;10.576;2024-03-02T11:06:27;6.20;;;5.60;;
11121;SDS011;5615;49.304;10.576;2024-03-02T11:08:58;6.45;;;5.20;;
11121;SDS011;5615;49.304;10.576;2024-03-02T11:11:32;6.10;;;5.50;;
11121;SDS011;5615;49.304;10.576;2024-03-02T11:14:02;6.22;;;5.63;;
11121;SDS011;5615;49.304;10.576;2024-03-02T11:16:33;5.97;;;5.35;;
11121;SDS011;5615;49.304;10.576;2024-03-02T11:19:02;6.75;;;6.15;;
11121;SDS011;5615;49.304;10.576;2024-03-02T11:21:30;6.68;;;5.50;;
11121;SDS011;5615;49.304;10.576;2024-03-02T11:23:58;5.35;;;4.85;;
11121;SDS011;5615;49.304;10.576;2024-03-02T11:26:24;7.25;;;5.80;;
11121;SDS011;5615;49.304;10.576;2024-03-02T11:28:55;6.55;;;5.47;;
11121;SDS011;5615;49.304;10.576;2024-03-02T11:31:24;6.38;;;5.45;;
11121;SDS011;5615;49.304;10.576;2024-03-02T11:34:28;5.50;;;5.00;;
11121;SDS011;5615;49.304;10.576;2024-03-02T11:36:55;6.03;;;5.43;;
11121;SDS011;5615;49.304;10.576;2024-03-02T11:39:23;6.88;;;5.18;;
11121;SDS011;5615;49.304;10.576;2024-03-02T11:41:50;5.68;;;5.18;;
11121;SDS011;5615;49.304;10.576;2024-03-02T11:44:18;5.68;;;5.03;;
11121;SDS011;5615;49.304;10.576;2024-03-02T11:46:45;6.43;;;5.40;;
11121;SDS011;5615;49.304;10.576;2024-03-02T11:49:13;6.10;;;5.50;;
11121;SDS011;5615;49.304;10.576;2024-03-02T11:51:40;6.63;;;5.15;;
11121;SDS011;5615;49.304;10.576;2024-03-02T11:54:19;5.85;;;5.22;;
11121;SDS011;5615;49.304;10.576;2024-03-02T11:56:46;6.40;;;5.80;;
11121;SDS011;5615;49.304;10.576;2024-03-02T11:59:13;6.53;;;5.90;;
11121;SDS011;5615;49.304;10.576;2024-03-02T12:01:41;7.18;;;5.53;;
11121;SDS011;5615;49.304;10.576;2024-03-02T12:04:08;6.03;;;5.43;;
11121;SDS011;5615;49.304;10.576;2024-03-02T12:06:36;6.57;;;5.82;;
11121;SDS011;5615;49.304;10.576;2024-03-02T12:09:03;6.38;;;5.78;;
11121;SDS011;5615;49.304;10.576;2024-03-02T12:11:31;6.40;;;5.68;;
11121;SDS011;5615;49.304;10.576;2024-03-02T12:13:58;6.63;;;5.88;;
11121;SDS011;5615;49.304;10.576;2024-03-02T12:16:24;6.80;;;6.20;;
11121;SDS011;5615;49.304;10.576;2024-03-02T12:18:52;6.40;;;5.80;;
11121;SDS011;5615;49.304;10.576;2024-03-02T12:21:20;6.25;;;5.72;;
11121;SDS011;5615;49.304;10.576;2024-03-02T12:23:47;6.70;;;6.00;;
11121;SDS011;5615;49.304;10.576;2024-03-02T12:26:15;6.38;;;5.88;;
11121;SDS011;5615;49.304;10.576;2024-03-02T12:28:41;6.32;;;5.82;;
11121;SDS011;5615;49.304;10.576;2024-03-02T12:31:09;6.60;;;6.00;;
11121;SDS011;5615;49.304;10.576;2024-03-02T12:33:36;6.65;;;6.05;;
11121;SDS011;5615;49.304;10.576;2024-03-02T12:36:04;6.35;;;5.75;;
11121;SDS011;5615;49.304;10.576;2024-03-02T12:38:37;6.60;;;6.00;;
11121;SDS011;5615;49.304;10.576;2024-03-02T12:41:03;5.93;;;5.43;;
11121;SDS011;5615;49.304;10.576;2024-03-02T12:43:31;5.55;;;5.05;;
11121;SDS011;5615;49.304;10.576;2024-03-02T12:45:58;6.80;;;6.20;;
11121;SDS011;5615;49.304;10.576;2024-03-02T12:48:24;6.65;;;6.05;;
11121;SDS011;5615;49.304;10.576;2024-03-02T12:50:51;7.15;;;6.45;;
11121;SDS011;5615;49.304;10.576;2024-03-02T12:53:19;5.80;;;5.30;;
11121;SDS011;5615;49.304;10.576;2024-03-02T12:55:47;7.43;;;6.72;;
11121;SDS011;5615;49.304;10.576;2024-03-02T12:58:18;7.55;;;6.72;;
11121;SDS011;5615;49.304;10.576;2024-03-02T13:00:45;6.70;;;6.00;;
11121;SDS011;5615;49.304;10.576;2024-03-02T13:03:12;7.60;;;5.95;;
11121;SDS011;5615;49.304;10.576;2024-03-02T13:05:40;7.43;;;6.55;;
11121;SDS011;5615;49.304;10.576;2024-03-02T13:08:07;6.90;;;6.25;;
11121;SDS011;5615;49.304;10.576;2024-03-02T13:10:35;6.32;;;5.82;;
11121;SDS011;5615;49.304;10.576;2024-03-02T13:13:02;6.45;;;5.88;;
11121;SDS011;5615;49.304;10.576;2024-03-02T13:15:29;9.30;;;5.93;;
11121;SDS011;5615;49.304;10.576;2024-03-02T13:17:58;8.10;;;7.30;;
11121;SDS011;5615;49.304;10.576;2024-03-02T13:20:29;8.35;;;7.55;;
11121;SDS011;5615;49.304;10.576;2024-03-02T13:22:56;9.63;;;8.73;;
11121;SDS011;5615;49.304;10.576;2024-03-02T13:25:23;9.25;;;8.45;;
11121;SDS011;5615;49.304;10.576;2024-03-02T13:27:51;10.18;;;9.27;;
11121;SDS011;5615;49.304;10.576;2024-03-02T13:30:17;10.05;;;9.18;;
11121;SDS011;5615;49.304;10.576;2024-03-02T13:32:44;10.23;;;9.32;;
11121;SDS011;5615;49.304;10.576;2024-03-02T13:35:11;9.93;;;8.93;;
11121;SDS011;5615;49.304;10.576;2024-03-02T13:37:37;9.07;;;8.38;;
11121;SDS011;5615;49.304;10.576;2024-03-02T13:40:04;9.52;;;8.73;;
11121;SDS011;5615;49.304;10.576;2024-03-02T13:42:37;9.65;;;8.85;;
11121;SDS011;5615;49.304;10.576;2024-03-02T13:45:06;11.55;;;10.52;;
11121;SDS011;5615;49.304;10.576;2024-03-02T13:47:33;10.57;;;9.68;;
11121;SDS011;5615;49.304;10.576;2024-03-02T13:49:59;10.93;;;9.93;;
11121;SDS011;5615;49.304;10.576;2024-03-02T13:52:27;12.85;;;11.85;;
11121;SDS011;5615;49.304;10.576;2024-03-02T13:54:55;11.35;;;10.32;;
11121;SDS011;5615;49.304;10.576;2024-03-02T13:57:21;12.93;;;11.80;;
11121;SDS011;5615;49.304;10.576;2024-03-02T13:59:48;11.82;;;10.77;;
11121;SDS011;5615;49.304;10.576;2024-03-02T14:02:16;12.07;;;11.00;;
11121;SDS011;5615;49.304;10.576;2024-03-02T14:04:43;10.32;;;9.35;;
11121;SDS011;5615;49.304;10.576;2024-03-02T14:07:10;10.45;;;9.35;;
11121;SDS011;5615;49.304;10.576;2024-03-02T14:09:37;11.35;;;10.25;;
11121;SDS011;5615;49.304;10.576;2024-03-02T14:12:04;13.07;;;10.50;;
11121;SDS011;5615;49.304;10.576;2024-03-02T14:14:31;12.55;;;11.25;;
11121;SDS011;5615;49.304;10.576;2024-03-02T14:16:58;12.27;;;11.18;;
11121;SDS011;5615;49.304;10.576;2024-03-02T14:19:30;11.52;;;10.43;;
11121;SDS011;5615;49.304;10.576;2024-03-02T14:21:56;11.10;;;10.10;;
11121;SDS011;5615;49.304;10.576;2024-03-02T14:24:23;12.68;;;11.38;;
11121;SDS011;5615;49.304;10.576;2024-03-02T14:26:51;13.00;;;11.70;;
11121;SDS011;5615;49.304;10.576;2024-03-02T14:29:17;11.38;;;10.30;;
11121;SDS011;5615;49.304;10.576;2024-03-02T14:31:44;11.32;;;10.15;;